CheckWX is a tool to help pilots better visualize weather data.  It is not intended as a substitute for an official pre-flight weather briefing.

17:08:47 UTC

KJHN METAR
Stanton County Municipal Airport
Johnson, Kansas, USA
Current

34 mins ago

KJHN 211635Z AUTO 06014G18KT 10SM CLR 27/19 A3009 RMK AO2 T02710192
Observed
Jul-21 @ 16:35 UTC
Wind
  • 060° at 14 KTS
  • Gusting to 18 KTS
Visibility
10 SM
Flight Rules
VFR
Cloud Levels
  • Clear skies
Temperature
27°C / 81°F
Dewpoint
19°C / 66°F
Heat Index
28°C / 83°F
Humidity
62%
Altimeter
30.09" Hg
Pressure
1018.92 hPa
Previous

54 mins ago

KJHN 211615Z AUTO 06012G16KT 10SM CLR 27/19 A3008 RMK AO2 T02720194
Observed
Jul-21 @ 16:15 UTC
Wind
  • 060° at 12 KTS
  • Gusting to 16 KTS
Visibility
10 SM
Flight Rules
VFR
Cloud Levels
  • Clear skies
Temperature
27°C / 81°F
Dewpoint
19°C / 66°F
Heat Index
28°C / 83°F
Humidity
62%
Altimeter
30.08" Hg
Pressure
1018.62 hPa
Previous

1 hour ago

KJHN 211555Z AUTO 06012G17KT 10SM CLR 27/19 A3007 RMK AO2 T02730194
Observed
Jul-21 @ 15:55 UTC
Wind
  • 060° at 12 KTS
  • Gusting to 17 KTS
Visibility
10 SM
Flight Rules
VFR
Cloud Levels
  • Clear skies
Temperature
27°C / 81°F
Dewpoint
19°C / 66°F
Heat Index
28°C / 83°F
Humidity
62%
Altimeter
30.07" Hg
Pressure
1018.32 hPa